sensor_id;sensor_type;location;lat;lon;timestamp;temperature;humidity
27797;DHT22;15177;50.844;4.412;2022-07-11T00:02:19;20.00;99.90
27797;DHT22;15177;50.844;4.412;2022-07-11T00:04:45;20.00;99.90
27797;DHT22;15177;50.844;4.412;2022-07-11T00:07:14;19.90;99.90
27797;DHT22;15177;50.844;4.412;2022-07-11T00:09:40;19.80;99.90
27797;DHT22;15177;50.844;4.412;2022-07-11T00:12:07;19.80;99.90
27797;DHT22;15177;50.844;4.412;2022-07-11T00:14:33;19.80;99.90
27797;DHT22;15177;50.844;4.412;2022-07-11T00:16:59;19.90;99.90
27797;DHT22;15177;50.844;4.412;2022-07-11T00:19:24;19.90;99.90
27797;DHT22;15177;50.844;4.412;2022-07-11T00:21:51;19.90;99.90
27797;DHT22;15177;50.844;4.412;2022-07-11T00:24:18;20.00;99.90
27797;DHT22;15177;50.844;4.412;2022-07-11T00:26:46;20.10;99.90
27797;DHT22;15177;50.844;4.412;2022-07-11T00:29:12;19.90;99.90
27797;DHT22;15177;50.844;4.412;2022-07-11T00:31:38;20.00;99.90
27797;DHT22;15177;50.844;4.412;2022-07-11T00:34:04;20.00;99.90
27797;DHT22;15177;50.844;4.412;2022-07-11T00:36:30;19.90;99.90
27797;DHT22;15177;50.844;4.412;2022-07-11T00:38:57;19.90;99.90
27797;DHT22;15177;50.844;4.412;2022-07-11T00:41:23;19.80;99.90
27797;DHT22;15177;50.844;4.412;2022-07-11T00:43:57;19.80;99.90
27797;DHT22;15177;50.844;4.412;2022-07-11T00:46:24;19.80;99.90
27797;DHT22;15177;50.844;4.412;2022-07-11T00:48:50;19.80;99.90
27797;DHT22;15177;50.844;4.412;2022-07-11T00:51:18;19.80;99.90
27797;DHT22;15177;50.844;4.412;2022-07-11T00:53:50;19.90;99.90
27797;DHT22;15177;50.844;4.412;2022-07-11T00:56:21;19.80;99.90
27797;DHT22;15177;50.844;4.412;2022-07-11T00:58:50;19.80;99.90
27797;DHT22;15177;50.844;4.412;2022-07-11T01:01:17;19.90;99.90
27797;DHT22;15177;50.844;4.412;2022-07-11T01:03:43;19.90;99.90
27797;DHT22;15177;50.844;4.412;2022-07-11T01:06:09;19.80;99.90
27797;DHT22;15177;50.844;4.412;2022-07-11T01:08:36;19.80;99.90
27797;DHT22;15177;50.844;4.412;2022-07-11T01:11:03;19.70;99.90
27797;DHT22;15177;50.844;4.412;2022-07-11T01:13:30;19.50;99.90
27797;DHT22;15177;50.844;4.412;2022-07-11T01:18:52;19.50;99.90
27797;DHT22;15177;50.844;4.412;2022-07-11T01:21:29;19.40;99.90
27797;DHT22;15177;50.844;4.412;2022-07-11T01:23:57;19.50;99.90
27797;DHT22;15177;50.844;4.412;2022-07-11T01:26:23;19.60;99.90
27797;DHT22;15177;50.844;4.412;2022-07-11T01:28:50;19.70;99.90
27797;DHT22;15177;50.844;4.412;2022-07-11T01:31:16;19.60;99.90
27797;DHT22;15177;50.844;4.412;2022-07-11T01:33:42;19.40;99.90
27797;DHT22;15177;50.844;4.412;2022-07-11T01:36:08;19.40;99.90
27797;DHT22;15177;50.844;4.412;2022-07-11T01:38:34;19.40;99.90
27797;DHT22;15177;50.844;4.412;2022-07-11T01:41:00;19.50;99.90
27797;DHT22;15177;50.844;4.412;2022-07-11T01:43:26;19.50;99.90
27797;DHT22;15177;50.844;4.412;2022-07-11T01:45:52;19.60;99.90
27797;DHT22;15177;50.844;4.412;2022-07-11T01:48:20;19.60;99.90
27797;DHT22;15177;50.844;4.412;2022-07-11T01:50:49;19.60;99.90
27797;DHT22;15177;50.844;4.412;2022-07-11T01:53:15;19.60;99.90
27797;DHT22;15177;50.844;4.412;2022-07-11T01:55:41;19.60;99.90
27797;DHT22;15177;50.844;4.412;2022-07-11T01:58:06;19.50;99.90
27797;DHT22;15177;50.844;4.412;2022-07-11T02:00:32;19.40;99.90
27797;DHT22;15177;50.844;4.412;2022-07-11T02:02:58;19.30;99.90
27797;DHT22;15177;50.844;4.412;2022-07-11T02:05:24;19.20;99.90
27797;DHT22;15177;50.844;4.412;2022-07-11T02:07:49;19.30;99.90
27797;DHT22;15177;50.844;4.412;2022-07-11T02:10:34;19.20;99.90
27797;DHT22;15177;50.844;4.412;2022-07-11T02:13:00;19.30;99.90
27797;DHT22;15177;50.844;4.412;2022-07-11T02:15:26;19.40;99.90
27797;DHT22;15177;50.844;4.412;2022-07-11T02:17:52;19.20;99.90
27797;DHT22;15177;50.844;4.412;2022-07-11T02:20:19;19.20;99.90
27797;DHT22;15177;50.844;4.412;2022-07-11T02:22:45;19.20;99.90
27797;DHT22;15177;50.844;4.412;2022-07-11T02:25:10;19.20;99.90
27797;DHT22;15177;50.844;4.412;2022-07-11T02:27:37;19.20;99.90
27797;DHT22;15177;50.844;4.412;2022-07-11T02:30:03;19.30;99.90
27797;DHT22;15177;50.844;4.412;2022-07-11T02:32:29;19.20;99.90
27797;DHT22;15177;50.844;4.412;2022-07-11T02:34:55;19.10;99.90
27797;DHT22;15177;50.844;4.412;2022-07-11T02:37:20;19.10;99.90
27797;DHT22;15177;50.844;4.412;2022-07-11T02:39:46;19.00;99.90
27797;DHT22;15177;50.844;4.412;2022-07-11T02:42:13;19.00;99.90
27797;DHT22;15177;50.844;4.412;2022-07-11T02:44:38;19.10;99.90
27797;DHT22;15177;50.844;4.412;2022-07-11T02:47:05;19.00;99.90
27797;DHT22;15177;50.844;4.412;2022-07-11T02:49:30;19.10;99.90
27797;DHT22;15177;50.844;4.412;2022-07-11T02:51:57;19.10;99.90
27797;DHT22;15177;50.844;4.412;2022-07-11T02:54:23;19.10;99.90
27797;DHT22;15177;50.844;4.412;2022-07-11T02:56:49;19.00;99.90
27797;DHT22;15177;50.844;4.412;2022-07-11T02:59:15;19.00;99.90
27797;DHT22;15177;50.844;4.412;2022-07-11T03:01:40;18.90;99.90
27797;DHT22;15177;50.844;4.412;2022-07-11T03:04:10;19.00;99.90
27797;DHT22;15177;50.844;4.412;2022-07-11T03:06:36;19.10;99.90
27797;DHT22;15177;50.844;4.412;2022-07-11T03:09:05;19.00;99.90
27797;DHT22;15177;50.844;4.412;2022-07-11T03:11:31;18.90;99.90
27797;DHT22;15177;50.844;4.412;2022-07-11T03:13:57;18.80;99.90
27797;DHT22;15177;50.844;4.412;2022-07-11T03:16:24;18.80;99.90
27797;DHT22;15177;50.844;4.412;2022-07-11T03:18:50;18.90;99.90
27797;DHT22;15177;50.844;4.412;2022-07-11T03:21:15;18.90;99.90
27797;DHT22;15177;50.844;4.412;2022-07-11T03:23:41;18.90;99.90
27797;DHT22;15177;50.844;4.412;2022-07-11T03:26:07;19.00;99.90
27797;DHT22;15177;50.844;4.412;2022-07-11T03:28:32;19.00;99.90
27797;DHT22;15177;50.844;4.412;2022-07-11T03:30:58;19.00;99.90
27797;DHT22;15177;50.844;4.412;2022-07-11T03:33:24;19.00;99.90
27797;DHT22;15177;50.844;4.412;2022-07-11T03:35:50;19.00;99.90
27797;DHT22;15177;50.844;4.412;2022-07-11T03:38:19;19.00;99.90
27797;DHT22;15177;50.844;4.412;2022-07-11T03:40:45;18.90;99.90
27797;DHT22;15177;50.844;4.412;2022-07-11T03:43:11;18.90;99.90
27797;DHT22;15177;50.844;4.412;2022-07-11T03:45:37;18.80;99.90
27797;DHT22;15177;50.844;4.412;2022-07-11T03:48:04;18.80;99.90
27797;DHT22;15177;50.844;4.412;2022-07-11T03:50:30;18.70;99.90
27797;DHT22;15177;50.844;4.412;2022-07-11T03:52:56;18.60;99.90
27797;DHT22;15177;50.844;4.412;2022-07-11T03:55:22;18.50;99.90
27797;DHT22;15177;50.844;4.412;2022-07-11T03:57:48;18.60;99.90
27797;DHT22;15177;50.844;4.412;2022-07-11T04:00:14;18.60;99.90
27797;DHT22;15177;50.844;4.412;2022-07-11T04:02:39;18.60;99.90
27797;DHT22;15177;50.844;4.412;2022-07-11T04:05:05;18.40;99.90
27797;DHT22;15177;50.844;4.412;2022-07-11T04:07:32;18.50;99.90
27797;DHT22;15177;50.844;4.412;2022-07-11T04:09:57;18.50;99.90
27797;DHT22;15177;50.844;4.412;2022-07-11T04:12:23;18.50;99.90
27797;DHT22;15177;50.844;4.412;2022-07-11T04:14:49;18.50;99.90
27797;DHT22;15177;50.844;4.412;2022-07-11T04:17:15;18.50;99.90
27797;DHT22;15177;50.844;4.412;2022-07-11T04:19:41;18.30;99.90
27797;DHT22;15177;50.844;4.412;2022-07-11T04:22:08;18.60;99.90
27797;DHT22;15177;50.844;4.412;2022-07-11T04:24:34;18.70;99.90
27797;DHT22;15177;50.844;4.412;2022-07-11T04:27:00;18.70;99.90
27797;DHT22;15177;50.844;4.412;2022-07-11T04:29:26;18.80;99.90
27797;DHT22;15177;50.844;4.412;2022-07-11T04:31:52;18.90;99.90
27797;DHT22;15177;50.844;4.412;2022-07-11T04:34:18;18.90;99.90
27797;DHT22;15177;50.844;4.412;2022-07-11T04:36:44;18.70;99.90
27797;DHT22;15177;50.844;4.412;2022-07-11T04:39:10;18.70;99.90
27797;DHT22;15177;50.844;4.412;2022-07-11T04:41:36;18.50;99.90
27797;DHT22;15177;50.844;4.412;2022-07-11T04:44:02;18.60;99.90
27797;DHT22;15177;50.844;4.412;2022-07-11T04:46:27;18.50;99.90
27797;DHT22;15177;50.844;4.412;2022-07-11T04:48:54;18.50;99.90
27797;DHT22;15177;50.844;4.412;2022-07-11T04:51:20;18.40;99.90
27797;DHT22;15177;50.844;4.412;2022-07-11T04:53:46;18.40;99.90
27797;DHT22;15177;50.844;4.412;2022-07-11T04:56:12;18.50;99.90
27797;DHT22;15177;50.844;4.412;2022-07-11T04:58:38;18.60;99.90
27797;DHT22;15177;50.844;4.412;2022-07-11T05:01:04;18.80;99.90
27797;DHT22;15177;50.844;4.412;2022-07-11T05:03:30;18.80;99.90
27797;DHT22;15177;50.844;4.412;2022-07-11T05:05:57;18.90;99.90
27797;DHT22;15177;50.844;4.412;2022-07-11T05:08:23;18.70;99.90
27797;DHT22;15177;50.844;4.412;2022-07-11T05:10:49;18.70;99.90
27797;DHT22;15177;50.844;4.412;2022-07-11T05:13:15;18.80;99.90
27797;DHT22;15177;50.844;4.412;2022-07-11T05:15:41;18.90;99.90
27797;DHT22;15177;50.844;4.412;2022-07-11T05:18:07;19.10;99.90
27797;DHT22;15177;50.844;4.412;2022-07-11T05:20:33;19.20;99.90
27797;DHT22;15177;50.844;4.412;2022-07-11T05:22:59;19.30;99.90
27797;DHT22;15177;50.844;4.412;2022-07-11T05:25:25;19.30;99.90
27797;DHT22;15177;50.844;4.412;2022-07-11T05:27:51;19.60;99.90
27797;DHT22;15177;50.844;4.412;2022-07-11T05:30:17;19.40;99.90
27797;DHT22;15177;50.844;4.412;2022-07-11T05:32:43;19.60;99.90
27797;DHT22;15177;50.844;4.412;2022-07-11T05:35:09;20.00;99.90
27797;DHT22;15177;50.844;4.412;2022-07-11T05:37:35;20.40;99.90
27797;DHT22;15177;50.844;4.412;2022-07-11T05:40:01;20.60;99.90
27797;DHT22;15177;50.844;4.412;2022-07-11T05:42:26;20.90;99.90
27797;DHT22;15177;50.844;4.412;2022-07-11T05:44:53;21.30;99.90
27797;DHT22;15177;50.844;4.412;2022-07-11T05:47:18;21.60;99.90
27797;DHT22;15177;50.844;4.412;2022-07-11T05:49:44;22.20;99.90
27797;DHT22;15177;50.844;4.412;2022-07-11T05:52:10;22.60;99.90
27797;DHT22;15177;50.844;4.412;2022-07-11T05:54:36;23.10;99.90
27797;DHT22;15177;50.844;4.412;2022-07-11T05:57:02;23.20;99.90
27797;DHT22;15177;50.844;4.412;2022-07-11T05:59:28;23.60;99.90
27797;DHT22;15177;50.844;4.412;2022-07-11T06:01:54;24.10;99.90
27797;DHT22;15177;50.844;4.412;2022-07-11T06:04:20;24.50;99.90
27797;DHT22;15177;50.844;4.412;2022-07-11T06:06:46;25.30;99.90
27797;DHT22;15177;50.844;4.412;2022-07-11T06:09:12;25.60;99.90
27797;DHT22;15177;50.844;4.412;2022-07-11T06:11:37;25.90;99.90
27797;DHT22;15177;50.844;4.412;2022-07-11T06:14:03;26.30;99.00
27797;DHT22;15177;50.844;4.412;2022-07-11T06:16:31;26.60;97.80
27797;DHT22;15177;50.844;4.412;2022-07-11T06:18:56;27.20;96.20
27797;DHT22;15177;50.844;4.412;2022-07-11T06:21:22;27.90;93.80
27797;DHT22;15177;50.844;4.412;2022-07-11T06:23:48;28.30;92.00
27797;DHT22;15177;50.844;4.412;2022-07-11T06:26:14;28.70;90.80
27797;DHT22;15177;50.844;4.412;2022-07-11T06:28:41;29.20;89.90
27797;DHT22;15177;50.844;4.412;2022-07-11T06:31:07;29.50;87.00
27797;DHT22;15177;50.844;4.412;2022-07-11T06:33:33;29.60;84.30
27797;DHT22;15177;50.844;4.412;2022-07-11T06:36:00;30.20;82.10
27797;DHT22;15177;50.844;4.412;2022-07-11T06:38:26;30.50;80.10
27797;DHT22;15177;50.844;4.412;2022-07-11T06:40:54;29.70;81.70
27797;DHT22;15177;50.844;4.412;2022-07-11T06:43:20;30.10;79.80
27797;DHT22;15177;50.844;4.412;2022-07-11T06:45:45;30.20;80.40
27797;DHT22;15177;50.844;4.412;2022-07-11T06:48:12;30.60;78.80
27797;DHT22;15177;50.844;4.412;2022-07-11T06:50:38;31.50;74.90
27797;DHT22;15177;50.844;4.412;2022-07-11T06:53:04;32.20;72.30
27797;DHT22;15177;50.844;4.412;2022-07-11T06:55:30;32.00;72.20
27797;DHT22;15177;50.844;4.412;2022-07-11T06:57:56;29.70;76.00
27797;DHT22;15177;50.844;4.412;2022-07-11T07:00:22;29.60;78.60
27797;DHT22;15177;50.844;4.412;2022-07-11T07:02:47;30.80;76.50
27797;DHT22;15177;50.844;4.412;2022-07-11T07:05:13;31.70;73.50
27797;DHT22;15177;50.844;4.412;2022-07-11T07:07:39;33.10;69.30
27797;DHT22;15177;50.844;4.412;2022-07-11T07:10:05;33.00;68.40
27797;DHT22;15177;50.844;4.412;2022-07-11T07:12:31;33.50;67.40
27797;DHT22;15177;50.844;4.412;2022-07-11T07:14:59;34.30;63.80
27797;DHT22;15177;50.844;4.412;2022-07-11T07:17:25;34.80;62.10
27797;DHT22;15177;50.844;4.412;2022-07-11T07:19:50;35.40;60.70
27797;DHT22;15177;50.844;4.412;2022-07-11T07:22:16;35.60;59.60
27797;DHT22;15177;50.844;4.412;2022-07-11T07:24:42;35.70;58.80
27797;DHT22;15177;50.844;4.412;2022-07-11T07:27:09;35.30;58.60
27797;DHT22;15177;50.844;4.412;2022-07-11T07:29:35;34.60;60.10
27797;DHT22;15177;50.844;4.412;2022-07-11T07:32:01;34.00;61.80
27797;DHT22;15177;50.844;4.412;2022-07-11T07:34:27;33.90;61.20
27797;DHT22;15177;50.844;4.412;2022-07-11T07:36:52;34.00;60.60
27797;DHT22;15177;50.844;4.412;2022-07-11T07:39:18;33.60;61.20
27797;DHT22;15177;50.844;4.412;2022-07-11T07:41:44;33.90;60.70
27797;DHT22;15177;50.844;4.412;2022-07-11T07:44:10;34.00;60.10
27797;DHT22;15177;50.844;4.412;2022-07-11T07:46:36;34.20;60.00
27797;DHT22;15177;50.844;4.412;2022-07-11T07:49:02;34.70;59.70
27797;DHT22;15177;50.844;4.412;2022-07-11T07:51:28;35.40;58.70
27797;DHT22;15177;50.844;4.412;2022-07-11T07:53:54;34.90;58.90
27797;DHT22;15177;50.844;4.412;2022-07-11T07:56:20;35.10;58.50
27797;DHT22;15177;50.844;4.412;2022-07-11T07:58:46;33.80;60.10
27797;DHT22;15177;50.844;4.412;2022-07-11T08:01:13;34.40;59.90
27797;DHT22;15177;50.844;4.412;2022-07-11T08:03:57;35.20;58.60
27797;DHT22;15177;50.844;4.412;2022-07-11T08:06:23;35.40;57.80
27797;DHT22;15177;50.844;4.412;2022-07-11T08:08:49;34.70;59.30
27797;DHT22;15177;50.844;4.412;2022-07-11T08:11:15;35.60;57.40
27797;DHT22;15177;50.844;4.412;2022-07-11T08:13:42;36.50;55.90
27797;DHT22;15177;50.844;4.412;2022-07-11T08:16:08;37.30;54.40
27797;DHT22;15177;50.844;4.412;2022-07-11T08:18:34;37.60;53.90
27797;DHT22;15177;50.844;4.412;2022-07-11T08:21:00;37.60;53.70
27797;DHT22;15177;50.844;4.412;2022-07-11T08:23:26;37.80;52.90
27797;DHT22;15177;50.844;4.412;2022-07-11T08:25:51;38.40;52.40
27797;DHT22;15177;50.844;4.412;2022-07-11T08:28:18;38.70;51.30
27797;DHT22;15177;50.844;4.412;2022-07-11T08:30:44;37.90;51.90
27797;DHT22;15177;50.844;4.412;2022-07-11T08:33:11;36.90;52.80
27797;DHT22;15177;50.844;4.412;2022-07-11T08:35:37;36.30;54.00
27797;DHT22;15177;50.844;4.412;2022-07-11T08:38:02;35.50;55.40
27797;DHT22;15177;50.844;4.412;2022-07-11T08:40:28;35.20;55.90
27797;DHT22;15177;50.844;4.412;2022-07-11T08:42:56;35.60;56.00
27797;DHT22;15177;50.844;4.412;2022-07-11T08:45:26;35.70;55.50
27797;DHT22;15177;50.844;4.412;2022-07-11T08:47:54;36.30;55.10
27797;DHT22;15177;50.844;4.412;2022-07-11T08:50:20;36.30;54.00
27797;DHT22;15177;50.844;4.412;2022-07-11T08:52:48;36.20;53.70
27797;DHT22;15177;50.844;4.412;2022-07-11T08:55:13;36.30;53.70
27797;DHT22;15177;50.844;4.412;2022-07-11T08:57:39;36.50;53.90
27797;DHT22;15177;50.844;4.412;2022-07-11T09:00:07;36.90;53.30
27797;DHT22;15177;50.844;4.412;2022-07-11T09:02:35;37.00;53.10
27797;DHT22;15177;50.844;4.412;2022-07-11T09:05:04;36.90;53.20
27797;DHT22;15177;50.844;4.412;2022-07-11T09:07:41;37.60;52.60
27797;DHT22;15177;50.844;4.412;2022-07-11T09:10:07;36.80;53.10
27797;DHT22;15177;50.844;4.412;2022-07-11T09:12:34;36.00;54.80
27797;DHT22;15177;50.844;4.412;2022-07-11T09:15:00;33.50;58.10
27797;DHT22;15177;50.844;4.412;2022-07-11T09:17:28;34.60;56.90
27797;DHT22;15177;50.844;4.412;2022-07-11T09:19:54;36.00;54.30
27797;DHT22;15177;50.844;4.412;2022-07-11T09:22:20;36.70;53.30
27797;DHT22;15177;50.844;4.412;2022-07-11T09:25:07;37.10;53.40
27797;DHT22;15177;50.844;4.412;2022-07-11T09:28:01;37.40;52.40
27797;DHT22;15177;50.844;4.412;2022-07-11T09:30:37;37.40;52.30
27797;DHT22;15177;50.844;4.412;2022-07-11T09:33:12;37.70;51.90
27797;DHT22;15177;50.844;4.412;2022-07-11T09:35:42;38.50;51.20
27797;DHT22;15177;50.844;4.412;2022-07-11T09:38:11;39.00;50.30
27797;DHT22;15177;50.844;4.412;2022-07-11T09:40:38;39.00;50.10
27797;DHT22;15177;50.844;4.412;2022-07-11T09:43:04;38.50;50.10
27797;DHT22;15177;50.844;4.412;2022-07-11T09:45:32;38.40;50.20
27797;DHT22;15177;50.844;4.412;2022-07-11T09:47:59;36.60;52.70
27797;DHT22;15177;50.844;4.412;2022-07-11T09:50:28;37.20;52.50
27797;DHT22;15177;50.844;4.412;2022-07-11T09:55:31;36.70;53.10
27797;DHT22;15177;50.844;4.412;2022-07-11T09:57:57;36.60;52.90
27797;DHT22;15177;50.844;4.412;2022-07-11T10:00:23;36.90;52.70
27797;DHT22;15177;50.844;4.412;2022-07-11T10:02:51;36.70;52.90
27797;DHT22;15177;50.844;4.412;2022-07-11T10:05:17;36.70;53.10
27797;DHT22;15177;50.844;4.412;2022-07-11T10:07:43;37.40;52.10
27797;DHT22;15177;50.844;4.412;2022-07-11T10:10:09;37.50;52.00
27797;DHT22;15177;50.844;4.412;2022-07-11T10:12:36;37.90;51.60
27797;DHT22;15177;50.844;4.412;2022-07-11T10:15:08;37.70;51.50
27797;DHT22;15177;50.844;4.412;2022-07-11T10:18:08;37.00;52.10
27797;DHT22;15177;50.844;4.412;2022-07-11T10:21:00;36.40;53.00
27797;DHT22;15177;50.844;4.412;2022-07-11T10:24:01;36.60;53.20
27797;DHT22;15177;50.844;4.412;2022-07-11T10:30:04;37.00;53.10
27797;DHT22;15177;50.844;4.412;2022-07-11T10:32:12;37.30;52.50
27797;DHT22;15177;50.844;4.412;2022-07-11T10:34:39;36.40;53.40
27797;DHT22;15177;50.844;4.412;2022-07-11T10:37:06;36.70;53.30
27797;DHT22;15177;50.844;4.412;2022-07-11T10:39:33;37.60;52.70
27797;DHT22;15177;50.844;4.412;2022-07-11T10:42:02;38.30;51.30
27797;DHT22;15177;50.844;4.412;2022-07-11T10:44:48;38.50;50.80
27797;DHT22;15177;50.844;4.412;2022-07-11T10:47:34;38.00;51.20
27797;DHT22;15177;50.844;4.412;2022-07-11T10:50:10;37.20;52.00
27797;DHT22;15177;50.844;4.412;2022-07-11T10:52:40;37.80;51.70
27797;DHT22;15177;50.844;4.412;2022-07-11T10:55:31;37.80;51.70
27797;DHT22;15177;50.844;4.412;2022-07-11T10:58:22;37.80;51.70
27797;DHT22;15177;50.844;4.412;2022-07-11T11:03:33;36.10;53.90
27797;DHT22;15177;50.844;4.412;2022-07-11T11:05:59;36.20;53.80
27797;DHT22;15177;50.844;4.412;2022-07-11T11:16:40;35.90;54.60
27797;DHT22;15177;50.844;4.412;2022-07-11T11:19:06;36.00;54.20
27797;DHT22;15177;50.844;4.412;2022-07-11T11:21:31;35.60;54.60
27797;DHT22;15177;50.844;4.412;2022-07-11T11:29:10;32.30;60.00
27797;DHT22;15177;50.844;4.412;2022-07-11T11:31:36;31.50;62.30
27797;DHT22;15177;50.844;4.412;2022-07-11T11:34:03;31.60;62.80
27797;DHT22;15177;50.844;4.412;2022-07-11T11:36:29;32.20;61.80
27797;DHT22;15177;50.844;4.412;2022-07-11T11:38:56;32.80;60.40
27797;DHT22;15177;50.844;4.412;2022-07-11T11:41:25;32.60;60.40
27797;DHT22;15177;50.844;4.412;2022-07-11T11:43:53;32.30;61.30
27797;DHT22;15177;50.844;4.412;2022-07-11T11:46:23;31.80;62.20
27797;DHT22;15177;50.844;4.412;2022-07-11T11:48:49;31.50;62.60
27797;DHT22;15177;50.844;4.412;2022-07-11T11:51:16;31.10;64.00
27797;DHT22;15177;50.844;4.412;2022-07-11T11:53:53;31.10;64.60
27797;DHT22;15177;50.844;4.412;2022-07-11T11:56:26;31.00;65.00
27797;DHT22;15177;50.844;4.412;2022-07-11T11:58:56;30.80;65.80
27797;DHT22;15177;50.844;4.412;2022-07-11T12:01:27;30.40;67.00
27797;DHT22;15177;50.844;4.412;2022-07-11T12:03:55;30.20;67.50
27797;DHT22;15177;50.844;4.412;2022-07-11T12:06:26;30.00;68.30
27797;DHT22;15177;50.844;4.412;2022-07-11T12:08:59;29.80;68.80
27797;DHT22;15177;50.844;4.412;2022-07-11T12:11:25;29.90;68.50
27797;DHT22;15177;50.844;4.412;2022-07-11T12:14:03;29.70;68.90
27797;DHT22;15177;50.844;4.412;2022-07-11T12:16:30;29.40;69.30
27797;DHT22;15177;50.844;4.412;2022-07-11T12:21:34;29.10;71.50
27797;DHT22;15177;50.844;4.412;2022-07-11T12:24:03;29.00;71.60
27797;DHT22;15177;50.844;4.412;2022-07-11T12:26:29;28.90;70.90
27797;DHT22;15177;50.844;4.412;2022-07-11T12:29:21;28.90;70.80
27797;DHT22;15177;50.844;4.412;2022-07-11T12:32:10;28.90;70.60
27797;DHT22;15177;50.844;4.412;2022-07-11T12:37:09;28.50;70.40
27797;DHT22;15177;50.844;4.412;2022-07-11T12:39:37;28.30;71.30
27797;DHT22;15177;50.844;4.412;2022-07-11T12:42:29;28.50;69.70
27797;DHT22;15177;50.844;4.412;2022-07-11T12:45:01;28.60;69.50
27797;DHT22;15177;50.844;4.412;2022-07-11T12:47:51;28.40;70.90
27797;DHT22;15177;50.844;4.412;2022-07-11T12:50:27;28.30;71.20
27797;DHT22;15177;50.844;4.412;2022-07-11T12:52:56;28.30;70.00
27797;DHT22;15177;50.844;4.412;2022-07-11T12:55:27;28.40;70.10
27797;DHT22;15177;50.844;4.412;2022-07-11T12:58:04;28.40;69.60
27797;DHT22;15177;50.844;4.412;2022-07-11T13:00:31;28.30;68.20
27797;DHT22;15177;50.844;4.412;2022-07-11T13:02:57;27.50;69.30
27797;DHT22;15177;50.844;4.412;2022-07-11T13:05:24;27.10;72.10
27797;DHT22;15177;50.844;4.412;2022-07-11T13:07:49;27.40;71.90
27797;DHT22;15177;50.844;4.412;2022-07-11T13:10:34;27.80;70.80
27797;DHT22;15177;50.844;4.412;2022-07-11T13:13:19;27.80;69.50
27797;DHT22;15177;50.844;4.412;2022-07-11T13:15:46;27.70;66.30
27797;DHT22;15177;50.844;4.412;2022-07-11T13:18:14;27.80;67.00
27797;DHT22;15177;50.844;4.412;2022-07-11T13:20:40;27.80;69.00
27797;DHT22;15177;50.844;4.412;2022-07-11T13:23:06;27.70;70.00
27797;DHT22;15177;50.844;4.412;2022-07-11T13:25:33;27.70;70.40
27797;DHT22;15177;50.844;4.412;2022-07-11T13:27:59;27.80;69.70
27797;DHT22;15177;50.844;4.412;2022-07-11T13:30:25;27.70;69.80
27797;DHT22;15177;50.844;4.412;2022-07-11T13:32:57;27.70;70.00
27797;DHT22;15177;50.844;4.412;2022-07-11T13:35:24;27.60;70.80
27797;DHT22;15177;50.844;4.412;2022-07-11T13:37:50;27.30;71.60
27797;DHT22;15177;50.844;4.412;2022-07-11T13:40:20;26.90;72.60
27797;DHT22;15177;50.844;4.412;2022-07-11T13:42:47;26.90;71.10
27797;DHT22;15177;50.844;4.412;2022-07-11T13:45:20;27.10;71.20
27797;DHT22;15177;50.844;4.412;2022-07-11T13:47:46;27.40;71.50
27797;DHT22;15177;50.844;4.412;2022-07-11T13:50:13;27.50;70.50
27797;DHT22;15177;50.844;4.412;2022-07-11T13:52:40;27.60;71.30
27797;DHT22;15177;50.844;4.412;2022-07-11T13:55:06;27.60;70.90
27797;DHT22;15177;50.844;4.412;2022-07-11T13:57:33;27.20;72.30
27797;DHT22;15177;50.844;4.412;2022-07-11T13:59:59;27.10;72.70
27797;DHT22;15177;50.844;4.412;2022-07-11T14:02:25;27.10;73.70
27797;DHT22;15177;50.844;4.412;2022-07-11T14:04:52;27.20;72.70
27797;DHT22;15177;50.844;4.412;2022-07-11T14:07:17;27.40;72.70
27797;DHT22;15177;50.844;4.412;2022-07-11T14:09:43;27.70;72.20
27797;DHT22;15177;50.844;4.412;2022-07-11T14:12:09;27.80;73.20
27797;DHT22;15177;50.844;4.412;2022-07-11T14:14:35;27.70;73.80
27797;DHT22;15177;50.844;4.412;2022-07-11T14:17:02;27.70;72.90
27797;DHT22;15177;50.844;4.412;2022-07-11T14:19:28;27.60;73.70
27797;DHT22;15177;50.844;4.412;2022-07-11T14:21:54;27.40;76.50
27797;DHT22;15177;50.844;4.412;2022-07-11T14:24:20;26.90;77.30
27797;DHT22;15177;50.844;4.412;2022-07-11T14:26:46;27.10;77.30
27797;DHT22;15177;50.844;4.412;2022-07-11T14:29:12;27.20;75.80
27797;DHT22;15177;50.844;4.412;2022-07-11T14:31:38;27.40;75.70
27797;DHT22;15177;50.844;4.412;2022-07-11T14:34:04;27.20;77.00
27797;DHT22;15177;50.844;4.412;2022-07-11T14:36:30;27.20;77.60
27797;DHT22;15177;50.844;4.412;2022-07-11T14:38:55;27.40;77.90
27797;DHT22;15177;50.844;4.412;2022-07-11T14:41:22;27.40;77.00
27797;DHT22;15177;50.844;4.412;2022-07-11T14:43:48;27.60;76.70
27797;DHT22;15177;50.844;4.412;2022-07-11T14:46:15;27.50;75.10
27797;DHT22;15177;50.844;4.412;2022-07-11T14:48:42;27.50;76.40
27797;DHT22;15177;50.844;4.412;2022-07-11T14:51:08;27.00;78.60
27797;DHT22;15177;50.844;4.412;2022-07-11T14:53:34;27.10;79.20
27797;DHT22;15177;50.844;4.412;2022-07-11T14:56:02;26.90;79.10
27797;DHT22;15177;50.844;4.412;2022-07-11T14:58:27;26.90;79.60
27797;DHT22;15177;50.844;4.412;2022-07-11T15:00:53;26.70;80.70
27797;DHT22;15177;50.844;4.412;2022-07-11T15:03:19;26.50;80.50
27797;DHT22;15177;50.844;4.412;2022-07-11T15:06:04;26.30;82.00
27797;DHT22;15177;50.844;4.412;2022-07-11T15:08:29;26.60;79.90
27797;DHT22;15177;50.844;4.412;2022-07-11T15:11:14;26.90;78.90
27797;DHT22;15177;50.844;4.412;2022-07-11T15:13:58;27.10;78.40
27797;DHT22;15177;50.844;4.412;2022-07-11T15:16:24;27.10;77.60
27797;DHT22;15177;50.844;4.412;2022-07-11T15:18:52;27.20;75.90
27797;DHT22;15177;50.844;4.412;2022-07-11T15:21:18;27.10;74.80
27797;DHT22;15177;50.844;4.412;2022-07-11T15:23:43;27.20;75.00
27797;DHT22;15177;50.844;4.412;2022-07-11T15:26:09;27.10;74.70
27797;DHT22;15177;50.844;4.412;2022-07-11T15:28:35;27.10;75.20
27797;DHT22;15177;50.844;4.412;2022-07-11T15:31:00;27.10;75.80
27797;DHT22;15177;50.844;4.412;2022-07-11T15:33:26;27.10;76.10
27797;DHT22;15177;50.844;4.412;2022-07-11T15:35:52;27.00;76.40
27797;DHT22;15177;50.844;4.412;2022-07-11T15:38:21;27.10;76.00
27797;DHT22;15177;50.844;4.412;2022-07-11T15:40:47;27.10;76.20
27797;DHT22;15177;50.844;4.412;2022-07-11T15:43:13;27.10;75.00
27797;DHT22;15177;50.844;4.412;2022-07-11T15:45:40;27.10;75.20
27797;DHT22;15177;50.844;4.412;2022-07-11T15:48:06;26.90;76.00
27797;DHT22;15177;50.844;4.412;2022-07-11T15:50:34;27.00;76.70
27797;DHT22;15177;50.844;4.412;2022-07-11T15:53:00;27.00;76.50
27797;DHT22;15177;50.844;4.412;2022-07-11T15:55:26;26.70;77.50
27797;DHT22;15177;50.844;4.412;2022-07-11T15:57:52;26.70;77.80
27797;DHT22;15177;50.844;4.412;2022-07-11T16:00:19;26.70;77.20
27797;DHT22;15177;50.844;4.412;2022-07-11T16:02:46;26.80;77.00
27797;DHT22;15177;50.844;4.412;2022-07-11T16:05:12;26.90;76.60